createdAt,value
2022-11-29T00:01:27.884Z,4.97
2022-11-29T00:03:56.364Z,5.00
2022-11-29T00:06:33.123Z,5.90
2022-11-29T00:09:03.521Z,4.75
2022-11-29T00:11:53.555Z,4.87
2022-11-29T00:14:22.401Z,6.57
2022-11-29T00:16:58.212Z,4.68
2022-11-29T00:19:26.154Z,4.62
2022-11-29T00:21:53.874Z,4.72
2022-11-29T00:24:21.805Z,4.70
2022-11-29T00:26:49.589Z,4.75
2022-11-29T00:29:17.309Z,5.05
2022-11-29T00:31:45.203Z,5.72
2022-11-29T00:34:13.597Z,6.47
2022-11-29T00:36:41.586Z,6.32
2022-11-29T00:39:12.760Z,5.50
2022-11-29T00:41:40.754Z,5.22
2022-11-29T00:44:08.860Z,5.80
2022-11-29T00:46:36.639Z,6.57
2022-11-29T00:49:04.880Z,5.53
2022-11-29T00:51:32.898Z,4.93
2022-11-29T00:54:00.567Z,6.60
2022-11-29T00:56:28.275Z,6.32
2022-11-29T00:58:56.076Z,5.87
2022-11-29T01:01:23.758Z,6.25
2022-11-29T01:03:51.439Z,5.12
2022-11-29T01:06:20.403Z,5.65
2022-11-29T01:08:48.889Z,13.73
2022-11-29T01:11:23.553Z,6.15
2022-11-29T01:13:52.730Z,6.75
2022-11-29T01:16:20.510Z,6.53
2022-11-29T01:18:48.580Z,6.32
2022-11-29T01:21:19.387Z,6.85
2022-11-29T01:23:48.571Z,6.62
2022-11-29T01:26:19.598Z,5.37
2022-11-29T01:28:50.143Z,6.40
2022-11-29T01:31:23.829Z,7.28
2022-11-29T01:33:55.564Z,5.93
2022-11-29T01:36:23.371Z,5.78
2022-11-29T01:38:51.192Z,8.20
2022-11-29T01:41:25.155Z,6.18
2022-11-29T01:44:04.531Z,5.80
2022-11-29T01:46:37.469Z,6.18
2022-11-29T01:49:30.189Z,7.37
2022-11-29T01:52:04.003Z,5.55
2022-11-29T01:54:33.340Z,5.45
2022-11-29T01:57:02.696Z,6.30
2022-11-29T01:59:31.368Z,5.90
2022-11-29T02:02:07.535Z,6.22
2022-11-29T02:04:36.652Z,6.43
2022-11-29T02:07:05.337Z,6.25
2022-11-29T02:09:32.949Z,5.93
2022-11-29T02:12:38.086Z,6.40
2022-11-29T02:15:09.313Z,6.50
2022-11-29T02:17:58.659Z,7.75
2022-11-29T02:20:47.385Z,6.22
2022-11-29T02:23:48.629Z,7.22
2022-11-29T02:26:53.739Z,9.68
2022-11-29T02:29:42.476Z,6.20
2022-11-29T02:32:28.413Z,5.82
2022-11-29T02:35:05.064Z,6.62
2022-11-29T02:37:51.473Z,6.87
2022-11-29T02:40:37.537Z,5.82
2022-11-29T02:43:39.075Z,7.95
2022-11-29T02:46:13.684Z,7.72
2022-11-29T02:49:03.146Z,6.20
2022-11-29T02:51:47.651Z,7.75
2022-11-29T02:54:21.522Z,6.28
2022-11-29T02:57:01.225Z,10.38
2022-11-29T02:59:37.783Z,5.85
2022-11-29T03:02:21.174Z,6.93
2022-11-29T03:04:56.354Z,6.35
2022-11-29T03:07:36.491Z,6.75
2022-11-29T03:10:04.062Z,7.72
2022-11-29T03:12:50.452Z,6.45
2022-11-29T03:15:47.668Z,6.05
2022-11-29T03:18:52.082Z,7.68
2022-11-29T03:21:49.766Z,6.07
2022-11-29T03:24:27.298Z,6.15
2022-11-29T03:27:07.195Z,7.07
2022-11-29T03:29:41.669Z,5.47
2022-11-29T03:32:30.662Z,4.43
2022-11-29T03:35:26.177Z,7.82
2022-11-29T03:38:12.112Z,5.68
2022-11-29T03:41:02.312Z,5.60
2022-11-29T03:43:56.994Z,6.45
2022-11-29T03:46:36.203Z,6.95
2022-11-29T03:49:12.366Z,4.70
2022-11-29T03:51:58.057Z,8.25
2022-11-29T03:54:33.868Z,5.72
2022-11-29T03:57:01.836Z,6.18
2022-11-29T03:59:39.201Z,7.70
2022-11-29T04:02:15.869Z,8.98
2022-11-29T04:05:05.266Z,7.03
2022-11-29T04:07:46.524Z,7.07
2022-11-29T04:10:32.222Z,7.50
2022-11-29T04:13:30.244Z,7.28
2022-11-29T04:16:19.120Z,7.20
2022-11-29T04:19:06.604Z,6.60
2022-11-29T04:21:49.410Z,6.55
2022-11-29T04:24:55.623Z,8.10
2022-11-29T04:27:31.246Z,7.37
2022-11-29T04:30:07.702Z,8.88
2022-11-29T04:33:14.849Z,5.97
2022-11-29T04:35:56.531Z,9.55
2022-11-29T04:38:44.399Z,7.65
2022-11-29T04:41:38.412Z,8.32
2022-11-29T04:44:27.157Z,7.78
2022-11-29T04:47:03.369Z,7.43
2022-11-29T04:49:49.617Z,8.73
2022-11-29T04:52:41.760Z,11.15
2022-11-29T04:55:30.499Z,6.80
2022-11-29T04:58:14.301Z,5.03
2022-11-29T05:00:53.403Z,5.35
2022-11-29T05:03:34.422Z,6.53
2022-11-29T05:06:24.650Z,7.28
2022-11-29T05:09:19.246Z,7.68
2022-11-29T05:12:00.918Z,6.37
2022-11-29T05:14:47.458Z,8.23
2022-11-29T05:17:36.739Z,6.25
2022-11-29T05:20:27.636Z,7.97
2022-11-29T05:23:20.238Z,4.90
2022-11-29T05:25:50.621Z,9.32
2022-11-29T05:28:28.692Z,8.77
2022-11-29T05:31:31.297Z,9.05
2022-11-29T05:34:17.767Z,6.95
2022-11-29T05:36:59.085Z,5.35
2022-11-29T05:39:51.572Z,7.82
2022-11-29T05:42:40.448Z,5.05
2022-11-29T05:45:28.756Z,6.82
2022-11-29T05:48:07.311Z,7.15
2022-11-29T05:50:49.468Z,6.60
2022-11-29T05:53:32.362Z,7.78
2022-11-29T05:56:10.245Z,5.70
2022-11-29T05:59:04.124Z,7.78
2022-11-29T06:01:57.148Z,7.53
2022-11-29T06:04:34.590Z,4.22
2022-11-29T06:07:15.899Z,4.85
2022-11-29T06:10:02.043Z,6.80
2022-11-29T06:12:33.002Z,5.87
2022-11-29T06:15:07.430Z,4.78
2022-11-29T06:18:11.637Z,6.03
2022-11-29T06:20:39.224Z,7.00
2022-11-29T06:23:18.827Z,11.75
2022-11-29T06:26:04.923Z,11.20
2022-11-29T06:28:42.704Z,9.95
2022-11-29T06:31:24.780Z,10.05
2022-11-29T06:34:10.423Z,8.15
2022-11-29T06:37:01.035Z,14.90
2022-11-29T06:39:28.975Z,18.35
2022-11-29T06:41:56.733Z,17.90
2022-11-29T06:44:24.724Z,10.82
2022-11-29T06:47:05.211Z,7.72
2022-11-29T06:49:58.781Z,6.18
2022-11-29T06:52:45.527Z,7.50
2022-11-29T06:55:28.408Z,6.05
2022-11-29T06:58:43.759Z,5.50
2022-11-29T07:01:28.209Z,6.95
2022-11-29T07:04:17.747Z,7.47
2022-11-29T07:06:45.725Z,7.65
2022-11-29T07:09:21.429Z,5.82
2022-11-29T07:11:49.464Z,7.40
2022-11-29T07:14:17.337Z,7.32
2022-11-29T07:17:02.808Z,5.05
2022-11-29T07:19:50.997Z,5.97
2022-11-29T07:22:37.662Z,5.75
2022-11-29T07:25:27.094Z,5.22
2022-11-29T07:28:09.129Z,7.70
2022-11-29T07:31:04.371Z,9.15
2022-11-29T07:34:08.710Z,11.82
2022-11-29T07:36:51.483Z,8.38
2022-11-29T07:39:33.465Z,6.28
2022-11-29T07:42:28.322Z,6.78
2022-11-29T07:45:23.612Z,5.62
2022-11-29T07:47:51.513Z,9.50
2022-11-29T07:50:20.291Z,8.07
2022-11-29T07:52:48.899Z,6.82
2022-11-29T07:55:22.665Z,12.80
2022-11-29T07:57:50.794Z,6.43
2022-11-29T08:00:20.404Z,5.37
2022-11-29T08:02:49.258Z,8.60
2022-11-29T08:05:17.391Z,8.43
2022-11-29T08:07:45.175Z,11.27
2022-11-29T08:10:17.569Z,6.20
2022-11-29T08:12:48.574Z,9.02
2022-11-29T08:15:16.998Z,7.68
2022-11-29T08:17:44.948Z,5.12
2022-11-29T08:20:14.377Z,7.65
2022-11-29T08:22:42.465Z,7.20
2022-11-29T08:25:11.466Z,8.98
2022-11-29T08:27:40.136Z,6.97
2022-11-29T08:30:08.664Z,5.82
2022-11-29T08:32:36.412Z,7.10
2022-11-29T08:35:04.136Z,6.70
2022-11-29T08:37:31.766Z,7.45
2022-11-29T08:40:00.114Z,6.80
2022-11-29T08:42:27.850Z,7.82
2022-11-29T08:44:55.613Z,6.80
2022-11-29T08:47:38.431Z,5.43
2022-11-29T08:50:13.320Z,10.30
2022-11-29T08:53:03.191Z,8.38
2022-11-29T08:55:36.652Z,7.45
2022-11-29T08:58:08.119Z,9.68
2022-11-29T09:00:36.301Z,9.07
2022-11-29T09:03:24.608Z,8.98
2022-11-29T09:05:53.072Z,8.45
2022-11-29T09:08:21.265Z,7.75
2022-11-29T09:10:49.018Z,8.43
2022-11-29T09:13:17.052Z,9.20
2022-11-29T09:15:44.809Z,7.87
2022-11-29T09:18:12.586Z,5.75
2022-11-29T09:20:44.021Z,6.85
2022-11-29T09:23:13.229Z,5.07
2022-11-29T09:25:41.086Z,6.93
2022-11-29T09:28:08.782Z,6.25
2022-11-29T09:30:39.040Z,6.12
2022-11-29T09:33:06.673Z,8.32
2022-11-29T09:35:35.807Z,6.65
2022-11-29T09:38:03.494Z,10.38
2022-11-29T09:40:55.628Z,6.82
2022-11-29T09:44:01.869Z,6.85
2022-11-29T09:46:38.167Z,9.90
2022-11-29T09:49:26.850Z,8.30
2022-11-29T09:52:14.012Z,7.32
2022-11-29T09:55:12.567Z,7.62
2022-11-29T09:57:42.427Z,8.20
2022-11-29T10:00:17.298Z,6.80
2022-11-29T10:02:49.474Z,8.00
2022-11-29T10:05:25.313Z,6.10
2022-11-29T10:08:08.437Z,5.78
2022-11-29T10:10:44.701Z,6.18
2022-11-29T10:13:18.291Z,7.05
2022-11-29T10:15:48.814Z,6.68
2022-11-29T10:18:41.411Z,8.73
2022-11-29T10:21:15.363Z,7.50
2022-11-29T10:23:44.969Z,5.28
2022-11-29T10:26:14.484Z,5.90
2022-11-29T10:28:48.550Z,6.07
2022-11-29T10:31:22.740Z,7.07
2022-11-29T10:33:51.329Z,5.32
2022-11-29T10:36:28.181Z,6.65
2022-11-29T10:39:02.487Z,5.95
2022-11-29T10:41:30.246Z,6.95
2022-11-29T10:44:00.265Z,8.23
2022-11-29T10:46:37.188Z,6.40
2022-11-29T10:49:14.283Z,7.10
2022-11-29T10:51:42.319Z,8.20
2022-11-29T10:54:31.028Z,6.72
2022-11-29T10:57:01.502Z,5.15
2022-11-29T10:59:31.620Z,5.78
2022-11-29T11:01:59.686Z,4.40
2022-11-29T11:04:35.157Z,3.45
2022-11-29T11:07:06.015Z,5.55
2022-11-29T11:09:34.171Z,9.27
2022-11-29T11:12:06.174Z,5.53
2022-11-29T11:14:38.699Z,4.55
2022-11-29T11:17:17.469Z,9.77
2022-11-29T11:20:06.814Z,4.60
2022-11-29T11:22:36.115Z,5.15
2022-11-29T11:25:26.283Z,4.43
2022-11-29T11:27:55.170Z,6.22
2022-11-29T11:30:29.022Z,4.25
2022-11-29T11:33:41.924Z,6.35
2022-11-29T11:36:15.989Z,9.85
2022-11-29T11:38:55.277Z,7.12
2022-11-29T11:41:56.161Z,4.05
2022-11-29T11:44:47.499Z,3.87
2022-11-29T11:47:36.892Z,5.93
2022-11-29T11:50:08.311Z,5.93
2022-11-29T11:52:49.890Z,4.30
2022-11-29T11:55:44.866Z,8.63
2022-11-29T11:58:15.503Z,4.22
2022-11-29T12:01:04.335Z,4.28
2022-11-29T12:03:53.879Z,5.05
2022-11-29T12:06:59.581Z,4.28
2022-11-29T12:09:42.157Z,5.37
2022-11-29T12:12:31.075Z,2.70
2022-11-29T12:15:21.842Z,2.90
2022-11-29T12:17:57.793Z,3.50
2022-11-29T12:20:29.447Z,5.20
2022-11-29T12:23:24.977Z,3.25
2022-11-29T12:26:48.890Z,3.90
2022-11-29T12:29:16.400Z,6.22
2022-11-29T12:31:43.988Z,3.83
2022-11-29T12:34:37.107Z,5.72
2022-11-29T12:37:23.178Z,4.20
2022-11-29T12:40:21.890Z,5.00
2022-11-29T12:43:29.564Z,3.15
2022-11-29T12:46:15.363Z,3.50
2022-11-29T12:49:01.740Z,5.37
2022-11-29T12:51:56.001Z,3.90
2022-11-29T12:55:01.352Z,3.53
2022-11-29T12:57:41.226Z,5.57
2022-11-29T13:00:17.755Z,3.17
2022-11-29T13:03:21.797Z,3.70
2022-11-29T13:06:19.845Z,4.85
2022-11-29T13:09:08.637Z,2.65
2022-11-29T13:11:46.650Z,6.37
2022-11-29T13:17:28.241Z,3.45
2022-11-29T13:20:14.355Z,6.97
2022-11-29T13:23:06.535Z,7.28
2022-11-29T13:25:43.659Z,4.32
2022-11-29T13:28:17.172Z,3.20
2022-11-29T13:30:45.595Z,3.58
2022-11-29T13:33:25.915Z,4.10
2022-11-29T13:36:08.520Z,7.10
2022-11-29T13:38:42.566Z,6.20
2022-11-29T13:41:32.064Z,5.32
2022-11-29T13:44:12.424Z,2.53
2022-11-29T13:47:01.597Z,4.57
2022-11-29T13:49:59.177Z,3.50
2022-11-29T13:52:38.638Z,6.00
2022-11-29T13:55:24.128Z,4.30
2022-11-29T13:58:28.120Z,5.70
2022-11-29T14:01:03.638Z,3.97
2022-11-29T14:03:33.606Z,5.47
2022-11-29T14:06:13.572Z,6.97
2022-11-29T14:11:43.810Z,5.57
2022-11-29T14:14:37.004Z,3.20
2022-11-29T14:17:07.618Z,4.25
2022-11-29T14:19:38.051Z,3.65
2022-11-29T14:22:20.513Z,4.80
2022-11-29T14:25:01.055Z,5.25
2022-11-29T14:27:28.587Z,4.87
2022-11-29T14:29:56.733Z,4.35
2022-11-29T14:32:25.872Z,4.82
2022-11-29T14:35:25.417Z,5.82
2022-11-29T14:37:56.767Z,6.20
2022-11-29T14:40:42.708Z,7.82
2022-11-29T14:43:23.679Z,5.85
2022-11-29T14:46:29.148Z,4.32
2022-11-29T14:48:57.293Z,8.82
2022-11-29T14:51:27.509Z,6.03
2022-11-29T14:54:16.589Z,5.25
2022-11-29T14:56:46.111Z,5.55
2022-11-29T14:59:51.307Z,4.40
2022-11-29T15:02:35.912Z,4.32
2022-11-29T15:05:15.513Z,5.85
2022-11-29T15:07:54.402Z,5.07
2022-11-29T15:10:30.870Z,5.50
2022-11-29T15:13:01.563Z,5.72
2022-11-29T15:15:44.154Z,6.22
2022-11-29T15:18:28.058Z,3.55
2022-11-29T15:21:10.772Z,5.53
2022-11-29T15:23:43.683Z,4.18
2022-11-29T15:26:20.251Z,5.05
2022-11-29T15:28:48.192Z,4.85
2022-11-29T15:31:19.952Z,6.70
2022-11-29T15:33:50.346Z,5.20
2022-11-29T15:36:23.009Z,6.60
2022-11-29T15:38:55.919Z,4.37
2022-11-29T15:41:32.165Z,4.93
2022-11-29T15:44:03.218Z,7.55
2022-11-29T15:46:33.970Z,6.07
2022-11-29T15:49:27.726Z,5.28
2022-11-29T15:51:59.351Z,7.75
2022-11-29T15:54:33.275Z,6.93
2022-11-29T15:57:05.622Z,8.15
2022-11-29T15:59:41.248Z,9.48
2022-11-29T16:02:20.785Z,6.00
2022-11-29T16:04:51.447Z,5.20
2022-11-29T16:07:21.081Z,5.60
2022-11-29T16:10:02.046Z,5.32
2022-11-29T16:12:29.920Z,7.78
2022-11-29T16:15:00.118Z,7.05
2022-11-29T16:17:30.629Z,9.02
2022-11-29T16:20:17.722Z,9.15
2022-11-29T16:22:45.660Z,16.40
2022-11-29T16:25:19.882Z,10.20
2022-11-29T16:27:48.718Z,12.57
2022-11-29T16:30:28.758Z,10.13
2022-11-29T16:33:01.684Z,12.15
2022-11-29T16:35:32.195Z,5.62
2022-11-29T16:38:01.286Z,4.32
2022-11-29T16:40:31.824Z,4.53
2022-11-29T16:43:05.514Z,7.82
2022-11-29T16:45:42.458Z,6.85
2022-11-29T16:48:39.343Z,6.78
2022-11-29T16:51:24.942Z,5.95
2022-11-29T16:53:54.580Z,6.60
2022-11-29T16:56:25.568Z,5.65
2022-11-29T16:59:26.929Z,8.20
2022-11-29T17:01:52.072Z,5.72
2022-11-29T17:04:23.904Z,6.78
2022-11-29T17:06:53.929Z,9.38
2022-11-29T17:09:30.825Z,8.23
2022-11-29T17:12:02.092Z,6.10
2022-11-29T17:14:30.631Z,9.13
2022-11-29T17:17:01.505Z,9.02
2022-11-29T17:19:30.522Z,11.25
2022-11-29T17:21:58.669Z,7.00
2022-11-29T17:24:26.609Z,7.15
2022-11-29T17:26:54.353Z,9.18
2022-11-29T17:29:22.060Z,7.05
2022-11-29T17:31:51.498Z,5.87
2022-11-29T17:34:19.362Z,6.82
2022-11-29T17:36:47.179Z,8.07
2022-11-29T17:39:16.727Z,7.10
2022-11-29T17:41:44.645Z,6.62
2022-11-29T17:44:12.332Z,6.57
2022-11-29T17:46:40.204Z,7.35
2022-11-29T17:49:10.513Z,7.43
2022-11-29T17:51:54.883Z,7.60
2022-11-29T17:54:23.640Z,7.72
2022-11-29T17:56:51.917Z,8.60
2022-11-29T17:59:19.748Z,13.35
2022-11-29T18:01:50.440Z,9.55
2022-11-29T18:04:18.411Z,8.45
2022-11-29T18:06:50.630Z,8.43
2022-11-29T18:09:19.881Z,8.75
2022-11-29T18:11:50.116Z,9.10
2022-11-29T18:14:29.294Z,8.85
2022-11-29T18:16:57.041Z,8.18
2022-11-29T18:19:24.977Z,7.20
2022-11-29T18:21:53.250Z,8.15
2022-11-29T18:24:21.038Z,8.10
2022-11-29T18:26:48.954Z,11.95
2022-11-29T18:29:16.851Z,9.10
2022-11-29T18:31:47.195Z,11.35
2022-11-29T18:34:15.703Z,9.05
2022-11-29T18:36:46.236Z,10.98
2022-11-29T18:39:19.270Z,9.30
2022-11-29T18:41:49.790Z,10.88
2022-11-29T18:44:20.446Z,10.43
2022-11-29T18:46:48.577Z,8.60
2022-11-29T18:49:18.400Z,13.45
2022-11-29T18:51:47.271Z,10.65
2022-11-29T18:54:16.778Z,13.15
2022-11-29T18:56:45.855Z,12.20
2022-11-29T18:59:17.964Z,12.05
2022-11-29T19:01:48.835Z,12.73
2022-11-29T19:04:21.836Z,11.15
2022-11-29T19:06:50.292Z,11.30
2022-11-29T19:09:24.903Z,10.60
2022-11-29T19:11:52.761Z,13.95
2022-11-29T19:14:20.986Z,13.18
2022-11-29T19:16:50.660Z,12.77
2022-11-29T19:19:20.051Z,12.50
2022-11-29T19:21:47.877Z,10.80
2022-11-29T19:24:16.913Z,11.75
2022-11-29T19:26:46.476Z,11.60
2022-11-29T19:29:15.296Z,10.25
2022-11-29T19:31:43.773Z,10.75
2022-11-29T19:34:11.760Z,9.02
2022-11-29T19:36:44.767Z,9.38
2022-11-29T19:39:15.568Z,12.35
2022-11-29T19:41:48.235Z,8.43
2022-11-29T19:44:17.726Z,8.68
2022-11-29T19:46:49.303Z,9.77
2022-11-29T19:49:17.068Z,10.60
2022-11-29T19:51:44.886Z,11.12
2022-11-29T19:54:13.127Z,9.70
2022-11-29T19:56:41.001Z,9.45
2022-11-29T19:59:09.501Z,9.48
2022-11-29T20:01:41.241Z,10.35
2022-11-29T20:04:10.740Z,8.77
2022-11-29T20:06:38.526Z,10.13
2022-11-29T20:09:07.304Z,8.93
2022-11-29T20:11:35.071Z,8.80
2022-11-29T20:14:04.665Z,10.25
2022-11-29T20:16:32.665Z,10.35
2022-11-29T20:19:00.748Z,9.20
2022-11-29T20:21:33.311Z,8.98
2022-11-29T20:24:03.717Z,8.13
2022-11-29T20:26:33.982Z,8.50
2022-11-29T20:29:02.872Z,8.68
2022-11-29T20:31:31.216Z,6.82
2022-11-29T20:33:59.285Z,9.02
2022-11-29T20:36:48.993Z,10.25
2022-11-29T20:39:43.308Z,7.50
2022-11-29T20:42:40.070Z,7.72
2022-11-29T20:45:10.146Z,8.23
2022-11-29T20:48:02.010Z,8.77
2022-11-29T20:50:32.808Z,6.72
2022-11-29T20:53:17.399Z,8.75
2022-11-29T20:55:48.032Z,7.35
2022-11-29T20:58:16.459Z,6.35
2022-11-29T21:00:44.234Z,8.45
2022-11-29T21:03:19.268Z,6.70
2022-11-29T21:05:47.792Z,6.30
2022-11-29T21:08:17.307Z,8.93
2022-11-29T21:10:45.175Z,8.23
2022-11-29T21:13:14.276Z,6.75
2022-11-29T21:15:42.644Z,8.95
2022-11-29T21:18:27.825Z,6.75
2022-11-29T21:21:17.620Z,6.93
2022-11-29T21:23:58.291Z,8.05
2022-11-29T21:26:34.947Z,6.55
2022-11-29T21:29:15.241Z,8.60
2022-11-29T21:31:43.140Z,6.37
2022-11-29T21:34:10.959Z,6.85
2022-11-29T21:36:39.815Z,4.85
2022-11-29T21:39:09.083Z,6.20
2022-11-29T21:41:37.348Z,6.40
2022-11-29T21:44:07.141Z,6.18
2022-11-29T21:46:35.628Z,7.00
2022-11-29T21:49:03.451Z,5.32
2022-11-29T21:51:31.117Z,6.20
2022-11-29T21:53:58.752Z,5.70
2022-11-29T21:56:26.579Z,5.35
2022-11-29T21:58:54.335Z,5.45
2022-11-29T22:01:22.351Z,5.90
2022-11-29T22:03:53.654Z,6.57
2022-11-29T22:06:22.283Z,6.03
2022-11-29T22:08:50.001Z,6.75
2022-11-29T22:11:31.742Z,5.60
2022-11-29T22:14:19.773Z,5.28
2022-11-29T22:16:50.243Z,5.85
2022-11-29T22:19:20.404Z,6.60
2022-11-29T22:21:50.533Z,6.22
2022-11-29T22:24:20.353Z,6.12
2022-11-29T22:26:49.021Z,6.80
2022-11-29T22:29:16.956Z,5.87
2022-11-29T22:31:46.817Z,6.15
2022-11-29T22:34:15.048Z,6.53
2022-11-29T22:36:43.384Z,5.87
2022-11-29T22:39:11.094Z,6.78
2022-11-29T22:41:39.858Z,6.20
2022-11-29T22:44:08.300Z,6.68
2022-11-29T22:46:36.813Z,5.50
2022-11-29T22:49:04.773Z,5.47
2022-11-29T22:51:36.297Z,5.25
2022-11-29T22:54:07.711Z,6.50
2022-11-29T22:56:38.578Z,6.43
2022-11-29T22:59:06.908Z,4.55
2022-11-29T23:01:36.841Z,5.25
2022-11-29T23:04:08.167Z,9.43
2022-11-29T23:06:39.009Z,5.35
2022-11-29T23:09:11.600Z,5.65
2022-11-29T23:11:39.904Z,4.53
2022-11-29T23:14:07.783Z,4.32
2022-11-29T23:16:35.602Z,7.43
2022-11-29T23:19:03.466Z,4.60
2022-11-29T23:21:36.383Z,5.00
2022-11-29T23:24:04.783Z,4.10
2022-11-29T23:26:40.521Z,4.28
2022-11-29T23:29:11.420Z,4.50
2022-11-29T23:31:39.928Z,5.20
2022-11-29T23:34:08.792Z,4.25
2022-11-29T23:36:36.504Z,4.12
2022-11-29T23:39:04.243Z,3.75
2022-11-29T23:41:31.906Z,4.53
2022-11-29T23:44:00.746Z,3.90
2022-11-29T23:46:28.470Z,4.93
2022-11-29T23:48:56.248Z,4.72
2022-11-29T23:51:23.919Z,5.22
2022-11-29T23:53:55.581Z,5.25
2022-11-29T23:56:23.559Z,4.12
2022-11-29T23:58:51.331Z,4.55
